createdAt,value
2022-10-12T00:02:16.306Z,80.92
2022-10-12T00:07:18.895Z,80.90
2022-10-12T00:12:21.273Z,80.98
2022-10-12T00:17:23.696Z,81.14
2022-10-12T00:22:26.295Z,81.24
2022-10-12T00:27:28.697Z,81.22
2022-10-12T00:32:31.253Z,81.34
2022-10-12T00:37:33.778Z,81.45
2022-10-12T00:42:36.203Z,81.48
2022-10-12T00:47:44.804Z,81.63
2022-10-12T00:52:55.786Z,81.63
2022-10-12T00:57:58.852Z,81.62
2022-10-12T01:03:01.921Z,81.61
2022-10-12T01:08:04.464Z,81.71
2022-10-12T01:13:07.465Z,81.55
2022-10-12T01:18:19.039Z,81.39
2022-10-12T01:23:59.494Z,81.41
2022-10-12T01:29:36.965Z,81.53
2022-10-12T01:35:13.744Z,81.66
2022-10-12T01:40:23.910Z,81.82
2022-10-12T01:45:26.465Z,82.02
2022-10-12T01:50:41.557Z,82.22
2022-10-12T01:55:57.237Z,82.15
2022-10-12T02:01:38.717Z,82.15
2022-10-12T02:06:45.063Z,82.26
2022-10-12T02:11:52.535Z,82.26
2022-10-12T02:17:00.395Z,82.24
2022-10-12T02:22:05.971Z,82.39
2022-10-12T02:27:11.071Z,82.62
2022-10-12T02:32:38.489Z,82.72
2022-10-12T02:37:46.435Z,83.10
2022-10-12T02:43:11.131Z,83.43
2022-10-12T02:48:20.537Z,83.79
2022-10-12T02:53:26.209Z,84.16
2022-10-12T02:58:28.688Z,84.61
2022-10-12T03:03:31.135Z,84.85
2022-10-12T03:08:33.958Z,84.99
2022-10-12T03:13:36.769Z,85.23
2022-10-12T03:18:39.839Z,85.52
2022-10-12T03:23:42.310Z,85.80
2022-10-12T03:28:45.286Z,85.86
2022-10-12T03:33:47.960Z,85.87
2022-10-12T03:38:50.351Z,85.76
2022-10-12T03:43:52.852Z,85.83
2022-10-12T03:48:55.355Z,86.10
2022-10-12T03:53:57.817Z,86.26
2022-10-12T03:59:00.281Z,86.36
2022-10-12T04:04:02.767Z,86.40
2022-10-12T04:09:05.255Z,86.37
2022-10-12T04:14:07.701Z,86.47
2022-10-12T04:19:13.450Z,86.77
2022-10-12T04:24:15.903Z,86.97
2022-10-12T04:29:18.353Z,87.14
2022-10-12T04:34:20.778Z,87.21
2022-10-12T04:39:23.770Z,87.14
2022-10-12T04:44:29.808Z,87.27
2022-10-12T04:49:34.559Z,87.34
2022-10-12T04:54:36.944Z,87.29
2022-10-12T04:59:39.352Z,87.43
2022-10-12T05:04:41.848Z,87.55
2022-10-12T05:09:44.300Z,87.39
2022-10-12T05:14:46.841Z,87.29
2022-10-12T05:19:49.237Z,87.22
2022-10-12T05:24:53.969Z,87.25
2022-10-12T05:29:56.572Z,87.04
2022-10-12T05:34:58.996Z,86.88
2022-10-12T05:40:02.991Z,86.61
2022-10-12T05:45:09.342Z,86.44
2022-10-12T05:50:11.826Z,86.22
2022-10-12T05:55:14.622Z,85.98
2022-10-12T06:00:19.265Z,85.53
2022-10-12T06:05:21.752Z,85.09
2022-10-12T06:10:27.738Z,84.69
2022-10-12T06:15:33.061Z,84.18
2022-10-12T06:20:36.246Z,83.73
2022-10-12T06:25:38.907Z,83.70
2022-10-12T06:30:43.368Z,83.66
2022-10-12T06:35:52.136Z,83.45
2022-10-12T06:40:54.879Z,82.91
2022-10-12T06:46:01.893Z,82.70
2022-10-12T06:51:04.686Z,82.39
2022-10-12T06:56:08.735Z,82.00
2022-10-12T07:01:11.327Z,81.26
2022-10-12T07:06:14.985Z,80.47
2022-10-12T07:11:17.407Z,80.27
2022-10-12T07:16:19.951Z,79.90
2022-10-12T07:21:22.709Z,79.45
2022-10-12T07:26:25.169Z,78.72
2022-10-12T07:31:28.762Z,77.59
2022-10-12T07:36:57.524Z,76.19
2022-10-12T07:41:54.403Z,75.90
2022-10-12T07:46:57.142Z,75.23
2022-10-12T07:51:59.711Z,75.23
2022-10-12T07:57:02.154Z,75.34
2022-10-12T08:02:04.829Z,74.76
2022-10-12T08:07:07.264Z,74.29
2022-10-12T08:12:10.817Z,74.12
2022-10-12T08:17:13.284Z,73.73
2022-10-12T08:22:15.775Z,73.75
2022-10-12T08:27:18.222Z,73.26
2022-10-12T08:32:22.096Z,71.36
2022-10-12T08:37:24.740Z,70.99
2022-10-12T08:42:41.192Z,71.42
2022-10-12T08:47:48.813Z,72.10
2022-10-12T08:53:00.134Z,72.16
2022-10-12T08:58:03.463Z,71.60
2022-10-12T09:03:42.743Z,70.62
2022-10-12T09:08:54.504Z,69.87
2022-10-12T09:14:08.659Z,69.05
2022-10-12T09:19:20.619Z,70.04
2022-10-12T09:24:26.705Z,69.71
2022-10-12T09:29:31.293Z,69.18
2022-10-12T09:34:34.747Z,69.02
2022-10-12T09:39:39.522Z,69.26
2022-10-12T09:44:48.268Z,68.24
2022-10-12T09:49:52.420Z,68.55
2022-10-12T09:55:05.273Z,68.30
2022-10-12T10:00:27.192Z,67.89
2022-10-12T10:05:34.786Z,65.94
2022-10-12T10:10:37.418Z,64.82
2022-10-12T10:15:43.420Z,63.98
2022-10-12T10:20:55.004Z,62.22
2022-10-12T10:26:09.400Z,60.66
2022-10-12T10:31:16.332Z,60.28
2022-10-12T10:36:23.214Z,61.55
2022-10-12T10:41:31.429Z,61.40
2022-10-12T10:46:37.525Z,61.45
2022-10-12T10:51:49.407Z,60.35
2022-10-12T10:56:56.702Z,59.44
2022-10-12T11:02:09.701Z,58.31
2022-10-12T11:07:51.502Z,58.13
2022-10-12T11:13:03.291Z,56.64
2022-10-12T11:18:20.979Z,56.34
2022-10-12T11:23:29.543Z,56.26
2022-10-12T11:28:34.357Z,55.86
2022-10-12T11:33:40.995Z,56.61
2022-10-12T11:38:48.360Z,57.71
2022-10-12T11:44:17.922Z,59.33
2022-10-12T11:49:31.327Z,60.62
2022-10-12T11:54:41.745Z,60.87
2022-10-12T11:59:47.954Z,60.30
2022-10-12T12:04:51.781Z,58.83
2022-10-12T12:09:54.848Z,56.75
2022-10-12T12:15:18.649Z,56.77
2022-10-12T12:20:43.086Z,55.15
2022-10-12T12:25:45.653Z,55.88
2022-10-12T12:31:07.038Z,56.24
2022-10-12T12:36:12.757Z,56.28
2022-10-12T12:41:34.433Z,56.89
2022-10-12T12:46:55.443Z,56.75
2022-10-12T12:51:58.054Z,55.65
2022-10-12T12:57:18.580Z,56.09
2022-10-12T13:02:53.585Z,55.92
2022-10-12T13:08:15.021Z,56.04
2022-10-12T13:13:39.288Z,54.98
2022-10-12T13:19:03.890Z,55.03
2022-10-12T13:24:33.449Z,55.23
2022-10-12T13:29:45.658Z,55.73
2022-10-12T13:34:54.835Z,55.35
2022-10-12T13:39:57.282Z,55.59
2022-10-12T13:45:03.304Z,56.44
2022-10-12T13:50:18.290Z,57.42
2022-10-12T13:55:26.621Z,58.20
2022-10-12T14:00:30.243Z,58.69
2022-10-12T14:05:33.649Z,59.11
2022-10-12T14:10:38.059Z,59.84
2022-10-12T14:15:41.400Z,60.17
2022-10-12T14:20:43.978Z,60.68
2022-10-12T14:25:55.317Z,60.99
2022-10-12T14:30:58.275Z,61.41
2022-10-12T14:36:27.192Z,61.75
2022-10-12T14:41:44.228Z,62.04
2022-10-12T14:47:10.752Z,62.31
2022-10-12T14:52:20.744Z,62.87
2022-10-12T14:57:24.907Z,63.26
2022-10-12T15:02:29.966Z,63.82
2022-10-12T15:07:34.039Z,64.23
2022-10-12T15:12:37.162Z,64.68
2022-10-12T15:17:39.586Z,65.42
2022-10-12T15:22:42.094Z,65.97
2022-10-12T15:27:44.678Z,66.11
2022-10-12T15:32:47.799Z,66.22
2022-10-12T15:37:51.229Z,66.64
2022-10-12T15:42:53.847Z,66.88
2022-10-12T15:47:56.337Z,67.29
2022-10-12T15:53:02.032Z,67.68
2022-10-12T15:58:04.683Z,68.05
2022-10-12T16:03:07.234Z,68.69
2022-10-12T16:08:09.837Z,69.14
2022-10-12T16:13:13.705Z,69.48
2022-10-12T16:18:16.616Z,70.02
2022-10-12T16:23:24.712Z,70.44
2022-10-12T16:28:29.773Z,70.94
2022-10-12T16:33:32.288Z,71.25
2022-10-12T16:38:36.240Z,71.64
2022-10-12T16:43:39.138Z,71.88
2022-10-12T16:48:41.540Z,72.02
2022-10-12T16:53:44.295Z,72.24
2022-10-12T16:58:48.318Z,72.51
2022-10-12T17:03:54.737Z,72.78
2022-10-12T17:09:01.095Z,72.87
2022-10-12T17:14:08.580Z,73.13
2022-10-12T17:19:16.823Z,73.37
2022-10-12T17:24:24.537Z,73.77
2022-10-12T17:29:31.899Z,73.99
2022-10-12T17:34:40.984Z,74.28
2022-10-12T17:39:47.830Z,74.40
2022-10-12T17:44:50.821Z,74.55
2022-10-12T17:49:53.414Z,74.68
2022-10-12T17:54:55.859Z,75.03
2022-10-12T17:59:58.295Z,75.35
2022-10-12T18:05:00.797Z,75.61
2022-10-12T18:10:04.956Z,75.76
2022-10-12T18:15:09.340Z,75.78
2022-10-12T18:20:12.957Z,76.05
2022-10-12T18:25:15.780Z,76.36
2022-10-12T18:30:18.435Z,76.71
2022-10-12T18:35:21.134Z,76.86
2022-10-12T18:40:23.633Z,76.87
2022-10-12T18:45:26.334Z,76.80
2022-10-12T18:50:28.818Z,76.80
2022-10-12T18:55:32.225Z,76.89
2022-10-12T19:00:34.687Z,76.87
2022-10-12T19:05:37.948Z,76.76
2022-10-12T19:10:41.087Z,76.87
2022-10-12T19:15:43.543Z,76.74
2022-10-12T19:20:46.007Z,76.77
2022-10-12T19:25:49.055Z,76.95
2022-10-12T19:30:54.038Z,77.15
2022-10-12T19:35:56.817Z,77.31
2022-10-12T19:41:01.097Z,77.30
2022-10-12T19:46:08.009Z,77.50
2022-10-12T19:51:14.216Z,77.40
2022-10-12T19:56:20.763Z,77.57
2022-10-12T20:01:27.391Z,77.84
2022-10-12T20:06:32.987Z,78.05
2022-10-12T20:11:35.755Z,78.48
2022-10-12T20:16:38.248Z,78.71
2022-10-12T20:21:40.796Z,78.80
2022-10-12T20:26:43.632Z,79.02
2022-10-12T20:31:46.249Z,78.89
2022-10-12T20:36:48.725Z,78.70
2022-10-12T20:41:51.167Z,78.59
2022-10-12T20:46:53.681Z,78.60
2022-10-12T20:51:56.353Z,78.72
2022-10-12T20:57:00.332Z,78.95
2022-10-12T21:02:05.745Z,79.14
2022-10-12T21:07:08.890Z,79.40
2022-10-12T21:12:11.812Z,79.59
2022-10-12T21:17:15.468Z,79.81
2022-10-12T21:22:18.610Z,80.29
2022-10-12T21:27:21.433Z,80.52
2022-10-12T21:32:23.885Z,80.64
2022-10-12T21:37:28.485Z,80.69
2022-10-12T21:42:30.912Z,80.67
2022-10-12T21:47:33.383Z,80.77
2022-10-12T21:52:36.149Z,80.92
2022-10-12T21:57:41.678Z,80.89
2022-10-12T22:02:44.113Z,80.76
2022-10-12T22:07:47.204Z,80.69
2022-10-12T22:12:49.823Z,80.75
2022-10-12T22:17:52.235Z,80.99
2022-10-12T22:22:54.713Z,81.19
2022-10-12T22:27:57.269Z,81.41
2022-10-12T22:32:59.621Z,81.61
2022-10-12T22:38:02.040Z,81.57
2022-10-12T22:43:04.435Z,81.85
2022-10-12T22:48:06.927Z,81.87
2022-10-12T22:53:09.588Z,82.07
2022-10-12T22:58:12.594Z,82.14
2022-10-12T23:03:15.127Z,81.92
2022-10-12T23:08:17.675Z,81.74
2022-10-12T23:13:20.191Z,81.66
2022-10-12T23:18:22.604Z,81.84
2022-10-12T23:23:25.212Z,82.10
2022-10-12T23:28:28.427Z,82.05
2022-10-12T23:33:31.004Z,81.93
2022-10-12T23:38:34.942Z,81.94
2022-10-12T23:43:37.715Z,82.27
2022-10-12T23:48:40.842Z,82.34
2022-10-12T23:53:43.509Z,82.30
2022-10-12T23:58:47.027Z,82.39
